createdAt,value
2023-02-08T00:00:54.225Z,112.93
2023-02-08T00:02:56.471Z,89.00
2023-02-08T00:04:58.628Z,81.43
2023-02-08T00:07:01.069Z,79.70
2023-02-08T00:09:03.840Z,90.97
2023-02-08T00:11:07.427Z,94.00
2023-02-08T00:13:09.527Z,102.30
2023-02-08T00:15:11.791Z,76.10
2023-02-08T00:17:13.940Z,97.60
2023-02-08T00:19:16.137Z,99.73
2023-02-08T00:21:19.946Z,86.60
2023-02-08T00:23:22.116Z,79.23
2023-02-08T00:25:24.704Z,146.20
2023-02-08T00:27:26.874Z,131.30
2023-02-08T00:29:29.027Z,127.90
2023-02-08T00:31:31.338Z,87.90
2023-02-08T00:33:34.202Z,112.07
2023-02-08T00:35:36.706Z,87.37
2023-02-08T00:37:39.040Z,106.77
2023-02-08T00:39:41.204Z,97.53
2023-02-08T00:41:43.425Z,99.10
2023-02-08T00:43:45.886Z,99.33
2023-02-08T00:45:48.037Z,105.53
2023-02-08T00:47:50.268Z,105.47
2023-02-08T00:49:52.437Z,94.63
2023-02-08T00:51:54.692Z,86.70
2023-02-08T00:53:57.583Z,86.40
2023-02-08T00:55:59.847Z,120.67
2023-02-08T00:58:02.002Z,84.70
2023-02-08T01:00:06.632Z,79.50
2023-02-08T01:02:08.798Z,82.47
2023-02-08T01:04:11.047Z,68.87
2023-02-08T01:06:16.123Z,80.27
2023-02-08T01:08:20.502Z,101.10
2023-02-08T01:10:22.663Z,86.63
2023-02-08T01:12:24.989Z,83.73
2023-02-08T01:14:27.684Z,79.20
2023-02-08T01:16:32.198Z,73.20
2023-02-08T01:18:35.582Z,82.13
2023-02-08T01:20:38.327Z,80.37
2023-02-08T01:22:40.698Z,89.07
2023-02-08T01:24:43.087Z,74.80
2023-02-08T01:26:45.336Z,87.97
2023-02-08T01:28:48.569Z,77.83
2023-02-08T01:30:50.740Z,88.27
2023-02-08T01:32:52.925Z,81.55
2023-02-08T01:34:55.135Z,87.83
2023-02-08T01:36:57.274Z,115.45
2023-02-08T01:38:59.642Z,89.85
2023-02-08T01:41:02.030Z,94.50
2023-02-08T01:43:20.009Z,88.00
2023-02-08T01:45:26.293Z,68.73
2023-02-08T01:47:28.499Z,85.03
2023-02-08T01:49:34.747Z,78.13
2023-02-08T01:51:40.551Z,92.15
2023-02-08T01:53:43.753Z,85.28
2023-02-08T01:55:49.488Z,73.93
2023-02-08T01:57:54.934Z,71.87
2023-02-08T02:00:01.928Z,85.60
2023-02-08T02:02:05.094Z,90.60
2023-02-08T02:04:08.144Z,89.13
2023-02-08T02:06:14.053Z,82.07
2023-02-08T02:08:16.271Z,72.93
2023-02-08T02:10:28.710Z,72.73
2023-02-08T02:12:32.055Z,80.73
2023-02-08T02:14:35.930Z,81.73
2023-02-08T02:16:38.345Z,93.90
2023-02-08T02:18:40.484Z,77.23
2023-02-08T02:20:52.914Z,71.53
2023-02-08T02:23:32.347Z,88.93
2023-02-08T02:25:34.523Z,84.47
2023-02-08T02:27:41.925Z,67.33
2023-02-08T02:30:03.056Z,84.97
2023-02-08T02:32:22.744Z,84.73
2023-02-08T02:34:47.454Z,83.93
2023-02-08T02:37:06.742Z,82.20
2023-02-08T02:39:35.949Z,80.65
2023-02-08T02:42:15.209Z,97.10
2023-02-08T02:44:23.155Z,88.60
2023-02-08T02:46:29.313Z,79.67
2023-02-08T02:48:42.191Z,77.53
2023-02-08T02:51:05.860Z,77.93
2023-02-08T02:53:18.149Z,96.13
2023-02-08T02:55:23.105Z,88.10
2023-02-08T02:57:29.409Z,78.43
2023-02-08T02:59:35.696Z,80.83
2023-02-08T03:01:39.133Z,80.88
2023-02-08T03:03:41.332Z,93.30
2023-02-08T03:05:43.602Z,93.15
2023-02-08T03:08:01.985Z,82.65
2023-02-08T03:10:19.834Z,87.57
2023-02-08T03:12:40.659Z,108.00
2023-02-08T03:15:20.482Z,97.60
2023-02-08T03:17:35.369Z,110.05
2023-02-08T03:20:19.228Z,88.97
2023-02-08T03:22:37.287Z,98.72
2023-02-08T03:24:55.196Z,96.07
2023-02-08T03:27:09.454Z,97.38
2023-02-08T03:29:16.969Z,87.60
2023-02-08T03:31:31.045Z,109.45
2023-02-08T03:33:34.904Z,101.73
2023-02-08T03:35:40.913Z,93.80
2023-02-08T03:37:48.301Z,103.93
2023-02-08T03:39:52.711Z,98.40
2023-02-08T03:42:10.122Z,91.17
2023-02-08T03:44:16.795Z,88.30
2023-02-08T03:46:25.664Z,83.37
2023-02-08T03:48:28.679Z,101.27
2023-02-08T03:50:34.489Z,85.10
2023-02-08T03:52:37.056Z,93.67
2023-02-08T03:54:45.011Z,90.27
2023-02-08T03:57:07.285Z,89.80
2023-02-08T03:59:12.535Z,84.67
2023-02-08T04:01:28.731Z,79.97
2023-02-08T04:03:31.893Z,78.45
2023-02-08T04:05:34.885Z,75.50
2023-02-08T04:07:37.101Z,100.07
2023-02-08T04:09:39.560Z,86.40
2023-02-08T04:11:41.844Z,96.47
2023-02-08T04:13:44.003Z,74.60
2023-02-08T04:15:46.312Z,76.10
2023-02-08T04:17:48.515Z,80.97
2023-02-08T04:19:50.689Z,88.83
2023-02-08T04:21:53.024Z,98.67
2023-02-08T04:23:55.706Z,87.83
2023-02-08T04:25:58.262Z,86.53
2023-02-08T04:28:00.577Z,83.03
2023-02-08T04:30:02.855Z,79.70
2023-02-08T04:32:08.255Z,80.80
2023-02-08T04:34:10.514Z,76.30
2023-02-08T04:36:12.695Z,79.00
2023-02-08T04:38:14.946Z,86.13
2023-02-08T04:40:17.355Z,81.47
2023-02-08T04:42:19.559Z,81.53
2023-02-08T04:44:21.826Z,83.63
2023-02-08T04:46:24.165Z,76.18
2023-02-08T04:48:26.469Z,83.38
2023-02-08T04:50:28.800Z,79.78
2023-02-08T04:52:31.009Z,80.82
2023-02-08T04:54:33.685Z,85.15
2023-02-08T04:56:36.858Z,94.70
2023-02-08T04:58:38.982Z,72.83
2023-02-08T05:00:41.452Z,80.18
2023-02-08T05:02:43.772Z,77.23
2023-02-08T05:04:45.970Z,72.05
2023-02-08T05:06:48.595Z,78.20
2023-02-08T05:08:50.767Z,81.93
2023-02-08T05:10:53.052Z,71.03
2023-02-08T05:12:55.380Z,79.22
2023-02-08T05:14:57.646Z,71.90
2023-02-08T05:16:59.974Z,78.20
2023-02-08T05:19:02.164Z,69.47
2023-02-08T05:21:04.463Z,73.22
2023-02-08T05:23:07.012Z,82.25
2023-02-08T05:25:10.046Z,72.63
2023-02-08T05:27:12.199Z,82.47
2023-02-08T05:29:15.484Z,78.87
2023-02-08T05:31:20.911Z,81.20
2023-02-08T05:33:23.640Z,84.17
2023-02-08T05:35:26.071Z,70.75
2023-02-08T05:37:28.406Z,65.23
2023-02-08T05:39:30.641Z,73.85
2023-02-08T05:41:32.857Z,80.83
2023-02-08T05:43:35.426Z,68.50
2023-02-08T05:45:37.642Z,75.32
2023-02-08T05:47:39.903Z,73.28
2023-02-08T05:49:42.254Z,71.60
2023-02-08T05:51:44.640Z,72.50
2023-02-08T05:53:47.010Z,65.07
2023-02-08T05:55:49.241Z,64.28
2023-02-08T05:57:51.588Z,76.47
2023-02-08T05:59:54.782Z,81.00
2023-02-08T06:01:56.889Z,71.97
2023-02-08T06:04:00.481Z,65.20
2023-02-08T06:06:02.691Z,76.40
2023-02-08T06:08:05.520Z,74.20
2023-02-08T06:10:10.470Z,78.25
2023-02-08T06:12:13.474Z,87.65
2023-02-08T06:14:15.768Z,72.50
2023-02-08T06:16:19.941Z,80.63
2023-02-08T06:18:22.599Z,76.00
2023-02-08T06:20:24.749Z,64.65
2023-02-08T06:22:27.761Z,76.10
2023-02-08T06:24:30.065Z,75.38
2023-02-08T06:26:32.875Z,66.68
2023-02-08T06:28:35.057Z,82.37
2023-02-08T06:30:38.676Z,79.22
2023-02-08T06:32:41.182Z,67.93
2023-02-08T06:34:43.410Z,61.80
2023-02-08T06:36:45.768Z,66.07
2023-02-08T06:38:49.783Z,79.70
2023-02-08T06:40:53.279Z,70.70
2023-02-08T06:42:55.469Z,73.28
2023-02-08T06:44:58.910Z,63.95
2023-02-08T06:47:01.171Z,65.73
2023-02-08T06:49:03.335Z,84.25
2023-02-08T06:51:05.821Z,62.60
2023-02-08T06:53:08.092Z,64.27
2023-02-08T06:55:10.219Z,72.93
2023-02-08T06:57:15.696Z,67.90
2023-02-08T06:59:17.849Z,69.40
2023-02-08T07:01:20.618Z,64.18
2023-02-08T07:03:22.838Z,62.13
2023-02-08T07:05:25.054Z,76.18
2023-02-08T07:07:28.051Z,66.50
2023-02-08T07:09:30.207Z,75.30
2023-02-08T07:11:32.360Z,69.07
2023-02-08T07:13:35.328Z,71.97
2023-02-08T07:15:37.588Z,66.53
2023-02-08T07:17:39.957Z,69.70
2023-02-08T07:19:42.123Z,62.88
2023-02-08T07:21:44.329Z,58.75
2023-02-08T07:23:46.471Z,60.33
2023-02-08T07:26:01.071Z,57.75
2023-02-08T07:28:04.404Z,63.08
2023-02-08T07:30:08.568Z,66.20
2023-02-08T07:32:11.595Z,59.95
2023-02-08T07:34:13.746Z,59.92
2023-02-08T07:36:15.838Z,64.25
2023-02-08T07:38:20.628Z,68.18
2023-02-08T07:40:22.919Z,58.05
2023-02-08T07:42:24.926Z,64.77
2023-02-08T07:44:56.325Z,58.78
2023-02-08T07:46:58.481Z,65.85
2023-02-08T07:49:00.706Z,54.13
2023-02-08T07:51:03.413Z,63.47
2023-02-08T07:53:05.449Z,56.03
2023-02-08T07:55:07.932Z,57.93
2023-02-08T07:57:09.998Z,59.73
2023-02-08T07:59:12.173Z,65.37
2023-02-08T08:01:22.440Z,63.78
2023-02-08T08:03:25.009Z,65.50
2023-02-08T08:05:27.116Z,69.33
2023-02-08T08:07:29.336Z,84.55
2023-02-08T08:09:31.678Z,80.55
2023-02-08T08:11:33.801Z,75.25
2023-02-08T08:13:35.910Z,73.43
2023-02-08T08:15:39.658Z,76.87
2023-02-08T08:17:42.373Z,71.10
2023-02-08T08:19:44.710Z,69.50
2023-02-08T08:21:46.739Z,63.00
2023-02-08T08:23:48.826Z,60.03
2023-02-08T08:25:50.906Z,65.93
2023-02-08T08:27:53.702Z,67.67
2023-02-08T08:29:55.897Z,71.50
2023-02-08T08:31:58.204Z,65.03
2023-02-08T08:34:00.211Z,67.40
2023-02-08T08:36:02.257Z,70.00
2023-02-08T08:38:04.307Z,72.30
2023-02-08T08:40:07.676Z,66.03
2023-02-08T08:42:09.813Z,68.07
2023-02-08T08:44:11.958Z,63.90
2023-02-08T08:46:15.137Z,66.10
2023-02-08T08:48:17.198Z,63.97
2023-02-08T08:50:19.431Z,58.33
2023-02-08T08:52:21.518Z,53.53
2023-02-08T08:54:25.382Z,55.87
2023-02-08T08:56:27.842Z,58.40
2023-02-08T08:58:29.988Z,57.10
2023-02-08T09:00:32.295Z,52.73
2023-02-08T09:02:35.064Z,59.00
2023-02-08T09:04:37.153Z,53.73
2023-02-08T09:06:39.290Z,55.73
2023-02-08T09:08:41.442Z,55.83
2023-02-08T09:10:43.690Z,56.43
2023-02-08T09:12:45.937Z,53.83
2023-02-08T09:14:48.082Z,55.27
2023-02-08T09:16:50.491Z,55.93
2023-02-08T09:18:52.533Z,59.07
2023-02-08T09:20:54.551Z,57.00
2023-02-08T09:22:56.864Z,58.57
2023-02-08T09:24:59.903Z,54.03
2023-02-08T09:27:02.053Z,55.00
2023-02-08T09:29:04.982Z,48.73
2023-02-08T09:31:23.326Z,54.47
2023-02-08T09:33:25.585Z,55.03
2023-02-08T09:35:27.663Z,55.67
2023-02-08T09:37:29.947Z,56.00
2023-02-08T09:39:32.061Z,56.83
2023-02-08T09:41:56.198Z,60.27
2023-02-08T09:44:01.066Z,45.80
2023-02-08T09:46:08.689Z,51.47
2023-02-08T09:48:18.828Z,55.00
2023-02-08T09:50:33.156Z,57.00
2023-02-08T09:52:57.379Z,50.13
2023-02-08T09:55:02.913Z,49.70
2023-02-08T09:57:11.244Z,59.67
2023-02-08T09:59:16.655Z,44.63
2023-02-08T10:01:26.064Z,56.57
2023-02-08T10:03:44.880Z,53.53
2023-02-08T10:05:47.094Z,55.00
2023-02-08T10:07:49.230Z,55.43
2023-02-08T10:09:51.410Z,53.87
2023-02-08T10:12:18.598Z,52.97
2023-02-08T10:14:35.660Z,50.40
2023-02-08T10:16:52.583Z,50.63
2023-02-08T10:19:08.696Z,57.07
2023-02-08T10:21:35.107Z,54.23
2023-02-08T10:23:46.849Z,50.50
2023-02-08T10:26:10.493Z,49.20
2023-02-08T10:28:24.604Z,49.67
2023-02-08T10:30:38.580Z,50.10
2023-02-08T10:32:50.628Z,51.30
2023-02-08T10:34:54.489Z,45.63
2023-02-08T10:36:57.813Z,51.30
2023-02-08T10:39:00.873Z,55.67
2023-02-08T10:41:05.040Z,49.67
2023-02-08T10:43:23.881Z,49.40
2023-02-08T10:45:52.966Z,50.13
2023-02-08T10:47:58.999Z,50.13
2023-02-08T10:50:17.104Z,47.10
2023-02-08T10:52:19.303Z,48.23
2023-02-08T10:54:21.306Z,50.60
2023-02-08T10:56:47.717Z,53.50
2023-02-08T10:58:49.910Z,44.57
2023-02-08T11:00:52.478Z,49.60
2023-02-08T11:02:56.481Z,51.07
2023-02-08T11:05:15.394Z,54.83
2023-02-08T11:07:23.432Z,48.90
2023-02-08T11:09:31.058Z,49.87
2023-02-08T11:11:38.628Z,46.53
2023-02-08T11:13:41.418Z,51.00
2023-02-08T11:16:05.357Z,50.53
2023-02-08T11:18:17.491Z,48.20
2023-02-08T11:20:36.837Z,51.63
2023-02-08T11:22:39.117Z,45.03
2023-02-08T11:24:43.447Z,46.50
2023-02-08T11:26:45.677Z,49.87
2023-02-08T11:29:14.255Z,47.33
2023-02-08T11:31:19.836Z,39.97
2023-02-08T11:33:23.338Z,45.00
2023-02-08T11:35:26.500Z,46.90
2023-02-08T11:37:28.928Z,40.03
2023-02-08T11:39:36.733Z,42.40
2023-02-08T11:41:44.031Z,45.20
2023-02-08T11:44:03.110Z,41.23
2023-02-08T11:46:05.934Z,40.73
2023-02-08T11:48:22.169Z,42.47
2023-02-08T11:50:37.414Z,46.00
2023-02-08T11:52:42.525Z,50.20
2023-02-08T11:54:44.548Z,40.17
2023-02-08T11:57:01.922Z,45.63
2023-02-08T11:59:20.207Z,43.77
2023-02-08T12:01:27.006Z,43.23
2023-02-08T12:03:39.251Z,44.13
2023-02-08T12:05:49.323Z,52.07
2023-02-08T12:08:00.191Z,48.90
2023-02-08T12:10:08.334Z,46.23
2023-02-08T12:12:18.552Z,43.53
2023-02-08T12:14:49.533Z,49.33
2023-02-08T12:17:20.158Z,46.90
2023-02-08T12:19:34.176Z,43.57
2023-02-08T12:21:44.424Z,44.87
2023-02-08T12:23:53.540Z,39.13
2023-02-08T12:26:22.988Z,40.50
2023-02-08T12:29:00.597Z,44.40
2023-02-08T12:31:07.743Z,41.07
2023-02-08T12:33:33.560Z,46.63
2023-02-08T12:36:14.064Z,36.93
2023-02-08T12:38:57.850Z,44.20
2023-02-08T12:41:13.483Z,43.13
2023-02-08T12:43:40.158Z,40.70
2023-02-08T12:46:06.945Z,41.27
2023-02-08T12:48:26.290Z,46.13
2023-02-08T12:50:45.010Z,46.43
2023-02-08T12:53:31.052Z,44.40
2023-02-08T12:55:39.261Z,43.43
2023-02-08T12:57:43.512Z,41.83
2023-02-08T13:00:04.135Z,39.03
2023-02-08T13:02:23.740Z,44.20
2023-02-08T13:04:42.613Z,40.60
2023-02-08T13:06:51.504Z,38.40
2023-02-08T13:09:01.735Z,40.60
2023-02-08T13:11:19.737Z,40.67
2023-02-08T13:13:27.401Z,35.57
2023-02-08T13:15:39.685Z,40.17
2023-02-08T13:17:51.662Z,41.20
2023-02-08T13:20:07.541Z,47.40
2023-02-08T13:22:11.375Z,44.53
2023-02-08T13:24:35.542Z,45.57
2023-02-08T13:26:38.998Z,45.17
2023-02-08T13:28:50.188Z,42.33
2023-02-08T13:31:04.478Z,48.67
2023-02-08T13:33:20.970Z,43.13
2023-02-08T13:35:28.643Z,46.20
2023-02-08T13:37:32.557Z,44.10
2023-02-08T13:39:37.444Z,47.93
2023-02-08T13:41:51.236Z,45.23
2023-02-08T13:44:00.828Z,43.60
2023-02-08T13:46:03.487Z,46.87
2023-02-08T13:48:08.352Z,40.83
2023-02-08T13:50:39.084Z,42.10
2023-02-08T13:52:48.526Z,37.83
2023-02-08T13:55:30.656Z,46.40
2023-02-08T13:57:53.745Z,41.97
2023-02-08T14:00:30.726Z,43.67
2023-02-08T14:02:32.931Z,47.40
2023-02-08T14:04:37.317Z,41.63
2023-02-08T14:06:41.897Z,40.80
2023-02-08T14:09:14.811Z,38.20
2023-02-08T14:11:51.806Z,40.97
2023-02-08T14:13:59.535Z,45.17
2023-02-08T14:16:29.418Z,42.13
2023-02-08T14:18:31.592Z,42.17
2023-02-08T14:20:38.957Z,41.33
2023-02-08T14:22:50.431Z,41.17
2023-02-08T14:25:08.760Z,38.70
2023-02-08T14:27:20.431Z,36.90
2023-02-08T14:29:25.696Z,41.03
2023-02-08T14:31:43.862Z,45.10
2023-02-08T14:33:56.300Z,45.90
2023-02-08T14:36:01.051Z,41.03
2023-02-08T14:38:24.501Z,43.30
2023-02-08T14:40:29.017Z,39.70
2023-02-08T14:42:52.806Z,46.13
2023-02-08T14:45:00.456Z,41.63
2023-02-08T14:47:10.014Z,44.63
2023-02-08T14:49:17.208Z,43.30
2023-02-08T14:51:25.179Z,39.63
2023-02-08T14:53:43.755Z,42.63
2023-02-08T14:55:48.368Z,40.33
2023-02-08T14:57:50.437Z,42.33
2023-02-08T14:59:53.869Z,43.10
2023-02-08T15:01:59.101Z,44.33
2023-02-08T15:04:02.534Z,40.97
2023-02-08T15:06:36.953Z,40.47
2023-02-08T15:08:39.128Z,44.20
2023-02-08T15:10:42.817Z,48.60
2023-02-08T15:12:50.574Z,44.60
2023-02-08T15:14:55.200Z,40.27
2023-02-08T15:16:57.545Z,46.83
2023-02-08T15:19:01.244Z,47.10
2023-02-08T15:21:16.593Z,55.33
2023-02-08T15:23:21.564Z,43.90
2023-02-08T15:25:27.046Z,43.23
2023-02-08T15:27:31.730Z,46.33
2023-02-08T15:29:44.644Z,46.27
2023-02-08T15:31:47.502Z,46.37
2023-02-08T15:33:50.340Z,51.27
2023-02-08T15:35:58.611Z,45.47
2023-02-08T15:38:02.844Z,44.67
2023-02-08T15:40:05.282Z,44.07
2023-02-08T15:42:22.025Z,55.20
2023-02-08T15:44:30.372Z,50.00
2023-02-08T15:46:32.467Z,51.67
2023-02-08T15:48:35.961Z,55.70
2023-02-08T15:50:38.127Z,52.53
2023-02-08T15:52:40.643Z,52.60
2023-02-08T15:54:44.545Z,49.93
2023-02-08T15:57:06.474Z,51.03
2023-02-08T15:59:16.773Z,43.03
2023-02-08T16:01:22.533Z,57.60
2023-02-08T16:03:25.496Z,54.90
2023-02-08T16:05:31.943Z,49.73
2023-02-08T16:07:37.345Z,48.93
2023-02-08T16:09:39.544Z,68.30
2023-02-08T16:11:44.269Z,51.97
2023-02-08T16:13:48.845Z,65.23
2023-02-08T16:16:03.752Z,53.33
2023-02-08T16:18:32.780Z,50.63
2023-02-08T16:20:36.036Z,56.73
2023-02-08T16:22:38.135Z,54.63
2023-02-08T16:24:40.317Z,49.17
2023-02-08T16:26:59.731Z,48.30
2023-02-08T16:29:03.900Z,50.00
2023-02-08T16:31:06.362Z,52.33
2023-02-08T16:33:08.996Z,53.07
2023-02-08T16:35:33.632Z,51.20
2023-02-08T16:37:35.801Z,52.03
2023-02-08T16:39:52.244Z,49.17
2023-02-08T16:42:06.498Z,49.83
2023-02-08T16:44:19.821Z,55.30
2023-02-08T16:46:24.643Z,57.17
2023-02-08T16:48:28.896Z,50.60
2023-02-08T16:50:31.252Z,53.40
2023-02-08T16:52:34.495Z,51.83
2023-02-08T16:54:36.627Z,53.83
2023-02-08T16:56:39.325Z,47.20
2023-02-08T16:58:41.362Z,56.57
2023-02-08T17:00:43.653Z,60.63
2023-02-08T17:02:46.324Z,57.27
2023-02-08T17:04:51.431Z,61.67
2023-02-08T17:06:53.564Z,63.67
2023-02-08T17:08:56.594Z,59.63
2023-02-08T17:10:59.474Z,57.17
2023-02-08T17:13:20.767Z,60.50
2023-02-08T17:15:24.842Z,57.63
2023-02-08T17:17:27.817Z,59.87
2023-02-08T17:19:30.033Z,59.90
2023-02-08T17:21:32.425Z,72.00
2023-02-08T17:23:34.569Z,93.97
2023-02-08T17:25:36.662Z,78.77
2023-02-08T17:27:38.840Z,76.07
2023-02-08T17:29:41.557Z,80.63
2023-02-08T17:31:43.782Z,70.67
2023-02-08T17:33:46.038Z,78.10
2023-02-08T17:35:51.783Z,74.90
2023-02-08T17:37:54.566Z,75.57
2023-02-08T17:39:56.587Z,63.33
2023-02-08T17:41:58.775Z,65.90
2023-02-08T17:44:01.557Z,66.00
2023-02-08T17:46:18.005Z,59.57
2023-02-08T17:48:20.247Z,62.77
2023-02-08T17:50:23.287Z,61.77
2023-02-08T17:52:25.461Z,67.77
2023-02-08T17:54:27.603Z,62.50
2023-02-08T17:56:31.425Z,61.30
2023-02-08T17:58:34.638Z,61.17
2023-02-08T18:00:37.766Z,53.47
2023-02-08T18:02:47.200Z,61.63
2023-02-08T18:04:49.319Z,52.13
2023-02-08T18:06:51.326Z,50.13
2023-02-08T18:08:54.735Z,64.43
2023-02-08T18:11:03.368Z,57.07
2023-02-08T18:13:05.511Z,59.10
2023-02-08T18:15:09.513Z,60.03
2023-02-08T18:17:11.739Z,63.37
2023-02-08T18:19:13.937Z,58.07
2023-02-08T18:21:20.925Z,63.57
2023-02-08T18:23:22.972Z,54.40
2023-02-08T18:25:25.064Z,51.30
2023-02-08T18:27:27.454Z,51.43
2023-02-08T18:29:30.108Z,61.87
2023-02-08T18:31:32.844Z,51.67
2023-02-08T18:33:36.706Z,54.83
2023-02-08T18:35:38.765Z,66.33
2023-02-08T18:37:41.051Z,56.03
2023-02-08T18:39:43.398Z,63.43
2023-02-08T18:41:45.636Z,55.07
2023-02-08T18:43:48.743Z,53.17
2023-02-08T18:46:02.184Z,56.20
2023-02-08T18:48:04.496Z,54.77
2023-02-08T18:50:07.187Z,61.53
2023-02-08T18:52:11.537Z,71.80
2023-02-08T18:54:15.929Z,59.20
2023-02-08T18:56:24.248Z,84.43
2023-02-08T18:58:27.360Z,63.07
2023-02-08T19:00:29.742Z,67.60
2023-02-08T19:02:32.544Z,53.57
2023-02-08T19:04:38.455Z,59.00
2023-02-08T19:06:40.757Z,51.00
2023-02-08T19:08:44.531Z,49.40
2023-02-08T19:10:46.724Z,48.33
2023-02-08T19:12:48.949Z,52.40
2023-02-08T19:14:51.224Z,46.20
2023-02-08T19:16:53.407Z,42.80
2023-02-08T19:19:00.447Z,49.60
2023-02-08T19:21:08.381Z,49.23
2023-02-08T19:23:10.720Z,42.50
2023-02-08T19:25:12.977Z,43.90
2023-02-08T19:27:15.131Z,48.17
2023-02-08T19:29:20.015Z,29.27
2023-02-08T19:31:23.269Z,47.93
2023-02-08T19:33:25.607Z,47.67
2023-02-08T19:35:27.960Z,41.40
2023-02-08T19:37:30.230Z,39.40
2023-02-08T19:39:32.414Z,40.10
2023-02-08T19:41:37.544Z,41.20
2023-02-08T19:43:39.771Z,48.67
2023-02-08T19:45:44.814Z,50.70
2023-02-08T19:47:51.385Z,42.57
2023-02-08T19:49:54.745Z,41.90
2023-02-08T19:51:57.281Z,47.03
2023-02-08T19:54:01.090Z,43.30
2023-02-08T19:56:09.180Z,47.33
2023-02-08T19:58:12.747Z,48.80
2023-02-08T20:00:23.328Z,45.00
2023-02-08T20:02:27.488Z,50.53
2023-02-08T20:04:29.726Z,44.60
2023-02-08T20:06:36.377Z,49.57
2023-02-08T20:08:38.582Z,42.37
2023-02-08T20:10:45.452Z,47.30
2023-02-08T20:12:48.043Z,56.33
2023-02-08T20:14:50.373Z,45.30
2023-02-08T20:16:52.785Z,48.03
2023-02-08T20:18:55.073Z,48.30
2023-02-08T20:21:01.767Z,55.67
2023-02-08T20:23:14.172Z,50.00
2023-02-08T20:25:23.728Z,60.33
2023-02-08T20:27:32.141Z,59.50
2023-02-08T20:29:34.354Z,52.87
2023-02-08T20:31:38.874Z,46.63
2023-02-08T20:33:41.162Z,47.47
2023-02-08T20:35:43.584Z,52.27
2023-02-08T20:37:45.917Z,52.67
2023-02-08T20:39:48.221Z,58.20
2023-02-08T20:41:50.417Z,53.73
2023-02-08T20:43:53.222Z,59.10
2023-02-08T20:45:55.772Z,60.27
2023-02-08T20:47:58.010Z,56.53
2023-02-08T20:50:03.156Z,53.40
2023-02-08T20:52:12.490Z,63.50
2023-02-08T20:54:15.265Z,59.63
2023-02-08T20:56:25.986Z,69.43
2023-02-08T20:58:28.261Z,61.77
2023-02-08T21:00:40.139Z,57.27
2023-02-08T21:02:43.809Z,59.87
2023-02-08T21:04:46.101Z,53.33
2023-02-08T21:06:48.676Z,55.63
2023-02-08T21:08:52.096Z,53.13
2023-02-08T21:10:54.684Z,54.40
2023-02-08T21:12:56.945Z,56.30
2023-02-08T21:14:59.146Z,63.73
2023-02-08T21:17:01.628Z,59.97
2023-02-08T21:19:04.142Z,59.40
2023-02-08T21:21:06.538Z,63.57
2023-02-08T21:23:08.851Z,57.27
2023-02-08T21:25:11.371Z,60.33
2023-02-08T21:27:13.827Z,52.90
2023-02-08T21:29:16.203Z,62.30
2023-02-08T21:31:20.348Z,57.23
2023-02-08T21:33:22.718Z,68.30
2023-02-08T21:35:24.958Z,65.67
2023-02-08T21:37:27.157Z,55.63
2023-02-08T21:39:29.264Z,62.13
2023-02-08T21:41:33.651Z,63.73
2023-02-08T21:43:37.549Z,62.63
2023-02-08T21:45:40.053Z,56.80
2023-02-08T21:47:42.245Z,65.63
2023-02-08T21:50:03.290Z,55.67
2023-02-08T21:52:24.391Z,63.03
2023-02-08T21:54:44.587Z,64.30
2023-02-08T21:56:46.986Z,56.00
2023-02-08T21:58:49.169Z,69.23
2023-02-08T22:00:51.546Z,54.03
2023-02-08T22:02:53.722Z,60.60
2023-02-08T22:04:58.010Z,53.37
2023-02-08T22:07:00.580Z,54.53
2023-02-08T22:09:02.898Z,64.50
2023-02-08T22:11:05.949Z,62.13
2023-02-08T22:13:09.104Z,60.83
2023-02-08T22:15:12.869Z,63.47
2023-02-08T22:17:15.731Z,62.87
2023-02-08T22:19:17.934Z,57.63
2023-02-08T22:21:20.231Z,65.00
2023-02-08T22:23:22.882Z,58.83
2023-02-08T22:25:25.189Z,56.53
2023-02-08T22:27:27.885Z,56.50
2023-02-08T22:29:32.339Z,54.97
2023-02-08T22:31:34.980Z,61.90
2023-02-08T22:33:37.178Z,59.90
2023-02-08T22:35:39.563Z,59.97
2023-02-08T22:37:41.957Z,66.93
2023-02-08T22:39:44.826Z,72.97
2023-02-08T22:41:47.075Z,61.40
2023-02-08T22:43:49.758Z,62.67
2023-02-08T22:45:59.317Z,55.87
2023-02-08T22:48:01.560Z,64.30
2023-02-08T22:50:05.429Z,66.87
2023-02-08T22:52:08.824Z,60.27
2023-02-08T22:54:11.137Z,67.53
2023-02-08T22:56:15.138Z,61.00
2023-02-08T22:58:18.486Z,69.13
2023-02-08T23:00:20.916Z,68.15
2023-02-08T23:02:24.479Z,56.90
2023-02-08T23:04:26.740Z,53.47
2023-02-08T23:06:28.975Z,65.03
2023-02-08T23:08:31.259Z,56.07
2023-02-08T23:10:33.610Z,65.70
2023-02-08T23:12:35.769Z,67.03
2023-02-08T23:14:37.978Z,64.23
2023-02-08T23:16:40.245Z,64.23
2023-02-08T23:18:42.754Z,77.37
2023-02-08T23:20:45.207Z,59.10
2023-02-08T23:22:47.576Z,68.60
2023-02-08T23:24:49.735Z,64.23
2023-02-08T23:26:52.010Z,58.43
2023-02-08T23:28:54.376Z,65.07
2023-02-08T23:30:56.927Z,76.38
2023-02-08T23:32:59.212Z,81.87
2023-02-08T23:35:01.430Z,65.43
2023-02-08T23:37:03.598Z,69.30
2023-02-08T23:39:06.187Z,60.08
2023-02-08T23:41:13.497Z,68.83
2023-02-08T23:43:15.664Z,62.90
2023-02-08T23:45:17.953Z,54.43
2023-02-08T23:47:20.613Z,67.90
2023-02-08T23:49:22.888Z,65.40
2023-02-08T23:51:25.779Z,77.47
2023-02-08T23:53:30.357Z,78.85
2023-02-08T23:55:32.589Z,69.03
2023-02-08T23:57:36.757Z,66.60
2023-02-08T23:59:40.515Z,63.22
